Time;durP1;ratioP1;P1;durP2;ratioP2;P2;SDS_P1;SDS_P2;PMS_P1;PMS_P2;Temp;Humidity;BMP_temperature;BMP_pressure;BME280_temperature;BME280_humidity;BME280_pressure;Samples;Min_cycle;Max_cycle;Signal;HPM_P1;HPM_P2
2021/06/23 00:01:31;;;;;;;4.60;2.55;;;;;;;;;;5053841;28;20482;-56
2021/06/23 00:03:57;;;;;;;5.90;2.35;;;;;;;;;;5054947;28;20033;-56
2021/06/23 00:06:23;;;;;;;4.68;2.08;;;;;;;;;;5055165;28;20032;-56
2021/06/23 00:08:49;;;;;;;2.63;2.28;;;;;;;;;;5055074;28;20352;-56
2021/06/23 00:11:15;;;;;;;4.40;2.45;;;;;;;;;;5053859;28;20024;-56
2021/06/23 00:13:41;;;;;;;7.15;2.17;;;;;;;;;;5054323;28;20021;-56
2021/06/23 00:16:08;;;;;;;2.70;1.98;;;;;;;;;;5053266;28;20095;-56
2021/06/23 00:18:34;;;;;;;8.10;1.85;;;;;;;;;;5054799;28;20029;-56
2021/06/23 00:21:00;;;;;;;5.13;2.10;;;;;;;;;;5053666;28;20111;-56
2021/06/23 00:23:26;;;;;;;5.95;2.75;;;;;;;;;;5053057;28;20043;-56
2021/06/23 00:25:52;;;;;;;9.93;2.50;;;;;;;;;;5054015;28;20414;-56
2021/06/23 00:28:18;;;;;;;3.25;2.33;;;;;;;;;;5054352;28;20063;-56
2021/06/23 00:30:44;;;;;;;5.32;2.17;;;;;;;;;;5053722;28;20025;-56
2021/06/23 00:33:20;;;;;;;3.97;2.60;;;;;;;;;;5054465;28;20031;-56
2021/06/23 00:35:47;;;;;;;5.57;2.35;;;;;;;;;;5053653;28;20547;-56
2021/06/23 00:38:13;;;;;;;2.30;1.70;;;;;;;;;;5053914;28;20098;-56
2021/06/23 00:40:39;;;;;;;6.75;2.22;;;;;;;;;;5053330;28;20025;-56
2021/06/23 00:43:05;;;;;;;2.33;1.92;;;;;;;;;;5053930;28;20624;-56
2021/06/23 00:45:33;;;;;;;3.78;2.08;;;;;;;;;;5053016;28;20017;-56
2021/06/23 00:47:59;;;;;;;6.75;2.42;;;;;;;;;;5053875;28;20440;-56
2021/06/23 00:50:26;;;;;;;3.30;2.42;;;;;;;;;;5053226;28;20040;-55
2021/06/23 00:52:52;;;;;;;3.47;2.00;;;;;;;;;;5052608;28;20025;-56
2021/06/23 00:55:21;;;;;;;3.92;2.20;;;;;;;;;;5052495;28;20474;-55
2021/06/23 00:57:49;;;;;;;4.13;2.00;;;;;;;;;;5053530;28;20035;-55
2021/06/23 01:00:16;;;;;;;3.65;1.92;;;;;;;;;;5052736;28;20029;-55
2021/06/23 01:02:42;;;;;;;2.65;1.60;;;;;;;;;;5053741;28;20021;-55
2021/06/23 01:05:09;;;;;;;3.35;1.65;;;;;;;;;;5053344;28;20043;-55
2021/06/23 01:07:35;;;;;;;10.40;1.88;;;;;;;;;;5053651;28;20032;-55
2021/06/23 01:10:01;;;;;;;10.18;1.50;;;;;;;;;;5053745;28;20029;-56
2021/06/23 01:12:27;;;;;;;1.50;1.20;;;;;;;;;;5052823;28;20029;-55
2021/06/23 01:15:00;;;;;;;1.95;1.17;;;;;;;;;;5053617;28;20033;-55
2021/06/23 01:17:30;;;;;;;1.30;1.20;;;;;;;;;;5053302;28;20060;-56
2021/06/23 01:20:04;;;;;;;3.10;1.75;;;;;;;;;;5053247;28;20040;-55
2021/06/23 01:22:30;;;;;;;2.10;1.50;;;;;;;;;;5053348;28;20025;-56
2021/06/23 01:24:56;;;;;;;2.05;1.17;;;;;;;;;;5044388;28;20025;-55
2021/06/23 01:27:22;;;;;;;1.13;1.00;;;;;;;;;;5033767;28;20333;-55
2021/06/23 01:29:48;;;;;;;4.78;1.33;;;;;;;;;;5032439;28;20033;-55
2021/06/23 01:32:14;;;;;;;5.78;1.05;;;;;;;;;;5029038;28;20033;-56
2021/06/23 01:34:42;;;;;;;2.75;0.90;;;;;;;;;;5031500;28;20033;-55
2021/06/23 01:37:08;;;;;;;1.10;0.90;;;;;;;;;;5032443;28;20079;-55
2021/06/23 01:39:34;;;;;;;0.80;0.80;;;;;;;;;;5033218;28;20028;-55
2021/06/23 01:42:00;;;;;;;0.77;0.77;;;;;;;;;;5036901;28;20028;-55
2021/06/23 01:44:28;;;;;;;0.68;0.68;;;;;;;;;;5052915;28;20029;-55
2021/06/23 01:46:54;;;;;;;0.98;0.98;;;;;;;;;;5052476;28;20028;-55
2021/06/23 01:49:24;;;;;;;1.13;0.88;;;;;;;;;;5068360;28;20119;-55
2021/06/23 01:51:50;;;;;;;1.60;0.80;;;;;;;;;;5052119;28;20394;-55
2021/06/23 01:54:16;;;;;;;1.90;0.80;;;;;;;;;;5068069;28;20479;-55
2021/06/23 01:56:42;;;;;;;4.82;0.88;;;;;;;;;;5052543;28;20428;-55
2021/06/23 01:59:08;;;;;;;0.80;0.80;;;;;;;;;;5052451;28;20072;-55
2021/06/23 02:01:34;;;;;;;2.60;0.93;;;;;;;;;;5051989;28;20025;-55
2021/06/23 02:04:06;;;;;;;4.03;0.80;;;;;;;;;;5052886;28;20104;-55
2021/06/23 02:06:47;;;;;;;3.03;0.80;;;;;;;;;;5051427;28;20380;-55
2021/06/23 02:09:26;;;;;;;1.17;1.08;;;;;;;;;;5052527;28;20031;-55
2021/06/23 02:12:00;;;;;;;1.38;1.20;;;;;;;;;;5051465;28;20566;-55
2021/06/23 02:14:26;;;;;;;4.30;1.10;;;;;;;;;;5052655;28;20036;-55
2021/06/23 02:16:54;;;;;;;1.15;1.05;;;;;;;;;;5051091;28;20025;-55
2021/06/23 02:19:20;;;;;;;1.23;1.00;;;;;;;;;;5052607;28;20043;-55
2021/06/23 02:21:46;;;;;;;3.00;1.40;;;;;;;;;;5051587;28;20100;-54
2021/06/23 02:24:12;;;;;;;2.47;1.30;;;;;;;;;;5052521;28;20024;-54
2021/06/23 02:26:38;;;;;;;3.15;1.58;;;;;;;;;;5052793;28;20089;-54
2021/06/23 02:29:05;;;;;;;5.30;1.50;;;;;;;;;;5052528;28;20051;-54
2021/06/23 02:31:31;;;;;;;3.85;1.23;;;;;;;;;;5052060;28;20036;-55
2021/06/23 02:33:58;;;;;;;7.32;1.63;;;;;;;;;;5051419;28;20379;-55
2021/06/23 02:36:25;;;;;;;1.90;1.30;;;;;;;;;;5052587;28;20063;-54
2021/06/23 02:38:51;;;;;;;1.02;0.93;;;;;;;;;;5052086;28;20017;-54
2021/06/23 02:41:18;;;;;;;2.15;1.00;;;;;;;;;;5051699;28;20411;-54
2021/06/23 02:43:44;;;;;;;1.83;1.20;;;;;;;;;;5052117;28;20033;-54
2021/06/23 02:46:10;;;;;;;2.20;1.35;;;;;;;;;;5045451;28;20015;-54
2021/06/23 02:48:37;;;;;;;2.03;1.00;;;;;;;;;;5052263;28;20031;-54
2021/06/23 02:51:06;;;;;;;4.65;1.23;;;;;;;;;;5051225;28;20025;-54
2021/06/23 02:53:32;;;;;;;5.68;1.25;;;;;;;;;;5052304;28;20503;-54
2021/06/23 02:55:58;;;;;;;9.38;1.52;;;;;;;;;;5052204;28;20083;-54
2021/06/23 02:58:25;;;;;;;1.58;1.20;;;;;;;;;;5051052;28;20033;-54
2021/06/23 03:00:52;;;;;;;1.42;1.10;;;;;;;;;;5051223;28;20033;-55
2021/06/23 03:03:18;;;;;;;1.85;1.25;;;;;;;;;;5052275;28;20103;-54
2021/06/23 03:05:44;;;;;;;4.03;1.10;;;;;;;;;;5051744;28;20032;-55
2021/06/23 03:08:10;;;;;;;1.90;1.20;;;;;;;;;;5054198;28;20066;-54
2021/06/23 03:10:36;;;;;;;1.10;1.00;;;;;;;;;;5053926;28;20581;-54
2021/06/23 03:13:02;;;;;;;2.40;1.00;;;;;;;;;;5056139;28;20063;-54
2021/06/23 03:15:28;;;;;;;4.75;1.33;;;;;;;;;;5055583;28;20044;-54
2021/06/23 03:17:54;;;;;;;1.38;1.27;;;;;;;;;;5055306;28;20367;-54
2021/06/23 03:20:20;;;;;;;2.00;0.98;;;;;;;;;;5054543;28;20036;-54
2021/06/23 03:22:46;;;;;;;8.32;1.30;;;;;;;;;;5055528;28;20025;-54
2021/06/23 03:25:12;;;;;;;1.20;1.10;;;;;;;;;;5055791;28;20025;-54
2021/06/23 03:27:39;;;;;;;0.98;0.98;;;;;;;;;;5055286;28;20025;-54
2021/06/23 03:30:06;;;;;;;2.67;1.17;;;;;;;;;;5054866;28;20029;-54
2021/06/23 03:32:32;;;;;;;1.33;0.98;;;;;;;;;;5055552;28;20024;-54
2021/06/23 03:34:58;;;;;;;3.00;1.17;;;;;;;;;;5055394;28;20091;-55
2021/06/23 03:37:24;;;;;;;1.63;1.15;;;;;;;;;;5055069;28;20017;-54
2021/06/23 03:39:50;;;;;;;1.20;1.10;;;;;;;;;;5055627;28;20104;-54
2021/06/23 03:42:16;;;;;;;1.70;1.30;;;;;;;;;;5054744;28;20045;-54
2021/06/23 03:44:42;;;;;;;3.17;1.30;;;;;;;;;;5055286;28;20032;-54
2021/06/23 03:47:08;;;;;;;3.38;1.23;;;;;;;;;;5054961;28;20028;-54
2021/06/23 03:49:34;;;;;;;5.20;1.50;;;;;;;;;;5053431;28;20056;-54
2021/06/23 03:52:00;;;;;;;5.05;1.92;;;;;;;;;;5054314;28;20067;-54
2021/06/23 03:54:26;;;;;;;2.45;1.80;;;;;;;;;;5055082;28;20028;-54
2021/06/23 03:56:52;;;;;;;5.45;1.55;;;;;;;;;;5054885;28;20017;-54
2021/06/23 03:59:18;;;;;;;7.57;1.30;;;;;;;;;;5054577;28;20033;-54
2021/06/23 04:01:44;;;;;;;1.42;1.20;;;;;;;;;;5054078;28;20155;-54
2021/06/23 04:04:10;;;;;;;2.28;1.52;;;;;;;;;;5055269;28;20029;-54
2021/06/23 04:06:36;;;;;;;5.80;1.00;;;;;;;;;;5053535;28;20029;-54
2021/06/23 04:09:03;;;;;;;5.50;1.35;;;;;;;;;;5054859;28;20020;-54
2021/06/23 04:11:28;;;;;;;6.90;1.38;;;;;;;;;;5051805;28;20040;-54
2021/06/23 04:13:55;;;;;;;3.30;1.20;;;;;;;;;;5055115;28;20025;-54
2021/06/23 04:16:20;;;;;;;3.25;1.70;;;;;;;;;;5054938;28;20037;-54
2021/06/23 04:18:46;;;;;;;5.07;1.67;;;;;;;;;;5053959;28;20056;-55
2021/06/23 04:21:12;;;;;;;9.98;1.70;;;;;;;;;;5052634;28;20151;-54
2021/06/23 04:23:38;;;;;;;1.88;1.13;;;;;;;;;;5054630;28;20044;-54
2021/06/23 04:26:04;;;;;;;4.03;1.40;;;;;;;;;;5054505;28;20082;-54
2021/06/23 04:28:30;;;;;;;5.82;1.65;;;;;;;;;;5054176;28;20107;-54
2021/06/23 04:30:57;;;;;;;7.28;1.48;;;;;;;;;;5053562;28;20108;-54
2021/06/23 04:33:23;;;;;;;5.53;1.50;;;;;;;;;;5054017;28;20027;-53
2021/06/23 04:35:50;;;;;;;2.72;1.30;;;;;;;;;;5054380;28;20033;-54
2021/06/23 04:38:16;;;;;;;2.40;1.40;;;;;;;;;;5054232;28;20029;-54
2021/06/23 04:40:43;;;;;;;6.50;1.55;;;;;;;;;;5053028;28;20029;-54
2021/06/23 04:43:09;;;;;;;6.00;1.83;;;;;;;;;;5053968;28;20048;-54
2021/06/23 04:45:35;;;;;;;3.10;1.30;;;;;;;;;;5054078;28;20068;-54
2021/06/23 04:48:01;;;;;;;6.40;1.52;;;;;;;;;;5054007;28;20021;-53
2021/06/23 04:50:27;;;;;;;2.50;1.48;;;;;;;;;;5053282;28;20059;-59
2021/06/23 04:52:53;;;;;;;4.30;1.30;;;;;;;;;;5052496;28;20021;-59
2021/06/23 04:55:19;;;;;;;3.22;1.23;;;;;;;;;;5052397;28;20044;-59
2021/06/23 04:57:45;;;;;;;1.52;0.80;;;;;;;;;;5052486;28;20029;-59
2021/06/23 05:00:12;;;;;;;4.80;1.65;;;;;;;;;;5051077;28;20452;-59
2021/06/23 05:02:38;;;;;;;4.57;1.60;;;;;;;;;;5053587;28;20025;-59
2021/06/23 05:05:04;;;;;;;4.47;1.10;;;;;;;;;;5052528;28;20463;-59
2021/06/23 05:07:30;;;;;;;6.50;1.10;;;;;;;;;;5052081;28;20021;-59
2021/06/23 05:09:56;;;;;;;2.72;1.30;;;;;;;;;;5053587;28;20086;-60
2021/06/23 05:12:26;;;;;;;2.58;1.02;;;;;;;;;;5051254;28;20363;-59
2021/06/23 05:14:52;;;;;;;9.55;1.20;;;;;;;;;;5053917;28;20120;-59
2021/06/23 05:17:18;;;;;;;2.47;1.40;;;;;;;;;;5052114;28;20106;-59
2021/06/23 05:19:45;;;;;;;1.83;1.20;;;;;;;;;;5051849;28;20032;-60
2021/06/23 05:22:11;;;;;;;1.10;1.02;;;;;;;;;;5050745;28;20067;-60
2021/06/23 05:24:41;;;;;;;2.22;1.40;;;;;;;;;;5052118;28;20021;-59
2021/06/23 05:27:09;;;;;;;1.10;1.00;;;;;;;;;;5073137;28;20059;-59
2021/06/23 05:29:35;;;;;;;2.65;1.30;;;;;;;;;;5072047;28;20021;-59
2021/06/23 05:32:01;;;;;;;3.40;1.60;;;;;;;;;;5070201;28;20021;-60
2021/06/23 05:34:28;;;;;;;2.20;1.20;;;;;;;;;;5071279;28;20089;-59
2021/06/23 05:36:55;;;;;;;4.18;1.40;;;;;;;;;;5071506;28;20455;-59
2021/06/23 05:39:21;;;;;;;1.63;1.25;;;;;;;;;;5071586;28;20060;-59
2021/06/23 05:41:47;;;;;;;3.95;1.20;;;;;;;;;;5072130;28;20020;-59
2021/06/23 05:44:13;;;;;;;1.35;1.20;;;;;;;;;;5071886;28;20063;-59
2021/06/23 05:46:39;;;;;;;1.98;1.58;;;;;;;;;;5072121;28;20059;-59
2021/06/23 05:49:05;;;;;;;1.27;1.13;;;;;;;;;;5071321;28;20136;-59
2021/06/23 05:51:31;;;;;;;1.48;1.38;;;;;;;;;;5071770;28;20044;-59
2021/06/23 05:53:57;;;;;;;1.13;1.02;;;;;;;;;;5072598;28;20341;-60
2021/06/23 05:56:23;;;;;;;1.63;1.10;;;;;;;;;;5071816;28;20032;-59
2021/06/23 05:58:49;;;;;;;2.65;0.90;;;;;;;;;;5072815;28;20101;-59
2021/06/23 06:01:15;;;;;;;2.50;1.30;;;;;;;;;;5070632;28;20619;-59
2021/06/23 06:03:41;;;;;;;4.03;1.15;;;;;;;;;;5071565;28;20024;-59
2021/06/23 06:06:07;;;;;;;2.28;1.30;;;;;;;;;;5071058;28;20119;-60
2021/06/23 06:08:33;;;;;;;1.75;1.05;;;;;;;;;;5071311;28;20021;-60
2021/06/23 06:11:00;;;;;;;6.07;1.27;;;;;;;;;;5070595;28;20023;-59
2021/06/23 06:13:26;;;;;;;2.00;1.27;;;;;;;;;;5071280;28;20040;-60
2021/06/23 06:15:52;;;;;;;2.15;1.50;;;;;;;;;;5071397;28;20082;-60
2021/06/23 06:18:18;;;;;;;3.60;1.63;;;;;;;;;;5071046;28;20025;-59
2021/06/23 06:20:44;;;;;;;3.13;1.77;;;;;;;;;;5070151;28;20371;-59
2021/06/23 06:23:10;;;;;;;2.70;1.55;;;;;;;;;;5071233;28;20031;-60
2021/06/23 06:25:36;;;;;;;2.80;1.38;;;;;;;;;;5071498;28;20056;-60
2021/06/23 06:28:02;;;;;;;2.50;1.80;;;;;;;;;;5071191;28;20020;-59
2021/06/23 06:30:28;;;;;;;4.22;2.08;;;;;;;;;;5070424;28;20052;-59
2021/06/23 06:32:55;;;;;;;2.97;1.80;;;;;;;;;;5072414;28;20028;-59
2021/06/23 06:35:21;;;;;;;8.02;1.85;;;;;;;;;;5072652;28;20040;-59
2021/06/23 06:37:47;;;;;;;17.88;3.22;;;;;;;;;;5071012;28;20447;-60
2021/06/23 06:40:14;;;;;;;5.38;2.08;;;;;;;;;;5070386;28;20448;-59
2021/06/23 06:42:40;;;;;;;3.28;2.28;;;;;;;;;;5072096;28;20025;-59
2021/06/23 06:45:06;;;;;;;4.90;2.25;;;;;;;;;;5075220;28;20025;-59
2021/06/23 06:47:33;;;;;;;7.05;2.08;;;;;;;;;;5074909;28;20024;-59
2021/06/23 06:49:59;;;;;;;8.40;2.50;;;;;;;;;;5076035;28;20039;-59
2021/06/23 06:52:25;;;;;;;5.07;2.35;;;;;;;;;;5074216;28;20108;-59
2021/06/23 06:54:51;;;;;;;6.88;2.20;;;;;;;;;;5075925;28;20037;-59
2021/06/23 06:57:17;;;;;;;4.95;1.95;;;;;;;;;;5076286;28;20070;-59
2021/06/23 06:59:43;;;;;;;4.68;2.08;;;;;;;;;;5076008;28;20020;-59
2021/06/23 07:02:09;;;;;;;3.88;2.03;;;;;;;;;;5074751;28;20029;-59
2021/06/23 07:04:35;;;;;;;3.58;2.17;;;;;;;;;;5075904;28;20470;-59
2021/06/23 07:07:01;;;;;;;2.30;1.55;;;;;;;;;;5076055;28;20020;-59
2021/06/23 07:09:27;;;;;;;3.67;1.80;;;;;;;;;;5075797;28;20027;-59
2021/06/23 07:11:53;;;;;;;3.42;1.70;;;;;;;;;;5074722;28;20029;-59
2021/06/23 07:14:21;;;;;;;3.95;1.70;;;;;;;;;;5075757;28;20033;-59
2021/06/23 07:16:47;;;;;;;1.75;1.25;;;;;;;;;;5075460;28;20071;-59
2021/06/23 07:19:13;;;;;;;2.90;1.15;;;;;;;;;;5075562;28;20039;-59
2021/06/23 07:21:40;;;;;;;9.68;1.63;;;;;;;;;;5074678;28;20048;-60
2021/06/23 07:24:06;;;;;;;3.85;1.70;;;;;;;;;;5075648;28;20443;-59
2021/06/23 07:26:32;;;;;;;11.95;1.35;;;;;;;;;;5075552;28;20035;-59
2021/06/23 07:29:01;;;;;;;7.20;1.38;;;;;;;;;;5075388;28;20104;-59
2021/06/23 07:31:44;;;;;;;2.28;1.58;;;;;;;;;;5074471;28;20367;-59
2021/06/23 07:36:38;;;;;;;4.25;1.55;;;;;;;;;;5075467;28;20661;-60
2021/06/23 07:39:07;;;;;;;5.35;1.90;;;;;;;;;;5075344;28;20424;-59
2021/06/23 07:41:33;;;;;;;6.47;1.33;;;;;;;;;;5074703;28;20029;-59
2021/06/23 07:43:59;;;;;;;3.80;1.30;;;;;;;;;;5073717;28;20267;-59
2021/06/23 07:46:26;;;;;;;2.17;1.10;;;;;;;;;;5075341;28;20029;-59
2021/06/23 07:48:55;;;;;;;3.03;1.30;;;;;;;;;;5075438;28;20032;-59
2021/06/23 07:51:50;;;;;;;1.63;0.75;;;;;;;;;;5074365;28;20024;-59
2021/06/23 08:10:59;;;;;;;1.45;1.15;;;;;;;;;;5074836;28;20031;-59
2021/06/23 08:12:57;;;;;;;5.95;1.20;;;;;;;;;;5061219;28;20387;-59
2021/06/23 08:15:25;;;;;;;1.38;1.10;;;;;;;;;;5073141;28;20044;-59
2021/06/23 08:17:51;;;;;;;0.80;0.80;;;;;;;;;;5074305;28;20028;-59
2021/06/23 08:20:17;;;;;;;1.02;0.90;;;;;;;;;;5073764;28;20106;-59
2021/06/23 08:22:43;;;;;;;1.75;0.82;;;;;;;;;;5074520;28;20021;-59
2021/06/23 08:25:09;;;;;;;1.17;0.85;;;;;;;;;;5074595;28;20052;-59
2021/06/23 08:27:35;;;;;;;1.55;1.08;;;;;;;;;;5074323;28;20100;-59
2021/06/23 08:30:01;;;;;;;1.15;0.95;;;;;;;;;;5074324;28;20439;-59
2021/06/23 08:32:27;;;;;;;2.25;1.15;;;;;;;;;;5073518;28;20165;-59
2021/06/23 08:34:53;;;;;;;1.20;1.10;;;;;;;;;;5074183;28;20355;-59
2021/06/23 08:37:19;;;;;;;1.10;0.90;;;;;;;;;;5074215;28;20024;-59
2021/06/23 08:39:45;;;;;;;1.95;0.85;;;;;;;;;;5073645;28;20024;-59
2021/06/23 08:42:11;;;;;;;0.80;0.80;;;;;;;;;;5073119;28;20029;-60
2021/06/23 08:44:37;;;;;;;2.75;0.70;;;;;;;;;;5072769;28;20070;-59
2021/06/23 08:47:04;;;;;;;0.70;0.70;;;;;;;;;;5072665;28;20028;-59
2021/06/23 08:49:30;;;;;;;2.47;0.75;;;;;;;;;;5072617;28;20024;-59
2021/06/23 08:51:57;;;;;;;1.73;0.93;;;;;;;;;;5073164;28;20032;-59
2021/06/23 08:54:23;;;;;;;0.75;0.73;;;;;;;;;;5073421;28;20398;-59
2021/06/23 08:56:50;;;;;;;0.80;0.80;;;;;;;;;;5073728;28;20466;-59
2021/06/23 08:59:16;;;;;;;4.32;2.67;;;;;;;;;;5073608;28;20028;-59
2021/06/23 09:01:42;;;;;;;2.10;1.10;;;;;;;;;;5071840;28;20540;-59
2021/06/23 09:04:10;;;;;;;0.52;0.50;;;;;;;;;;5073307;28;20108;-59
2021/06/23 09:06:41;;;;;;;9.70;1.05;;;;;;;;;;5073044;28;20020;-59
2021/06/23 09:09:28;;;;;;;9.52;0.88;;;;;;;;;;5073561;28;20337;-59
2021/06/23 09:11:57;;;;;;;1.00;0.90;;;;;;;;;;5072427;28;20057;-59
2021/06/23 09:14:24;;;;;;;0.60;0.60;;;;;;;;;;5073351;28;20038;-59
2021/06/23 09:17:19;;;;;;;11.25;0.90;;;;;;;;;;5072276;28;20021;-59
2021/06/23 09:19:45;;;;;;;11.20;1.00;;;;;;;;;;5030429;28;20080;-59
2021/06/23 09:22:29;;;;;;;0.60;0.60;;;;;;;;;;5030535;28;20053;-59
2021/06/23 09:24:55;;;;;;;2.15;1.10;;;;;;;;;;5030957;28;20064;-59
2021/06/23 09:27:23;;;;;;;4.43;0.80;;;;;;;;;;5031208;28;20456;-59
2021/06/23 09:29:53;;;;;;;1.38;0.82;;;;;;;;;;5030747;28;20523;-59
2021/06/23 09:32:22;;;;;;;0.87;0.83;;;;;;;;;;5030056;28;20049;-59
2021/06/23 09:34:50;;;;;;;1.35;0.80;;;;;;;;;;5030726;28;21059;-59
2021/06/23 09:37:24;;;;;;;1.45;0.70;;;;;;;;;;5030996;28;20144;-59
2021/06/23 09:39:50;;;;;;;0.70;0.70;;;;;;;;;;5030297;28;20025;-59
2021/06/23 09:42:16;;;;;;;1.33;1.00;;;;;;;;;;5030153;28;20464;-59
2021/06/23 09:44:48;;;;;;;0.63;0.52;;;;;;;;;;5030521;28;20120;-59
2021/06/23 09:47:14;;;;;;;1.08;0.98;;;;;;;;;;5014193;28;20026;-59
2021/06/23 09:49:43;;;;;;;0.95;0.65;;;;;;;;;;5030365;28;20033;-59
2021/06/23 09:52:13;;;;;;;3.13;0.90;;;;;;;;;;5029942;28;20037;-59
2021/06/23 09:54:50;;;;;;;1.35;0.77;;;;;;;;;;5014035;28;20532;-60
2021/06/23 09:57:16;;;;;;;0.60;0.60;;;;;;;;;;5070994;28;20040;-59
2021/06/23 09:59:46;;;;;;;1.70;0.90;;;;;;;;;;5072930;28;20028;-59
2021/06/23 10:02:24;;;;;;;1.05;0.88;;;;;;;;;;5072168;28;20039;-59
2021/06/23 10:04:50;;;;;;;2.05;0.95;;;;;;;;;;5072923;28;20478;-59
2021/06/23 10:07:35;;;;;;;2.90;0.90;;;;;;;;;;5072655;28;20070;-59
2021/06/23 10:10:01;;;;;;;0.80;0.80;;;;;;;;;;5072268;28;20028;-59
2021/06/23 10:12:27;;;;;;;1.00;0.90;;;;;;;;;;5070319;28;20046;-59
2021/06/23 10:14:53;;;;;;;2.13;0.80;;;;;;;;;;5072449;28;20072;-59
2021/06/23 10:17:21;;;;;;;1.85;0.98;;;;;;;;;;5076426;28;20021;-59
2021/06/23 10:19:47;;;;;;;1.35;1.00;;;;;;;;;;5078885;28;20089;-59
2021/06/23 10:22:14;;;;;;;1.00;0.80;;;;;;;;;;5078568;28;20436;-59
2021/06/23 10:24:40;;;;;;;1.55;0.90;;;;;;;;;;5079467;28;20465;-60
2021/06/23 10:27:10;;;;;;;0.80;0.80;;;;;;;;;;5078700;28;20056;-59
2021/06/23 10:29:36;;;;;;;0.90;0.85;;;;;;;;;;5079418;28;20020;-59
2021/06/23 10:32:03;;;;;;;0.80;0.63;;;;;;;;;;5076985;28;20111;-60
2021/06/23 10:34:29;;;;;;;1.90;0.80;;;;;;;;;;5078899;28;20032;-59
2021/06/23 10:36:56;;;;;;;0.95;0.73;;;;;;;;;;5079113;28;20442;-59
2021/06/23 10:39:23;;;;;;;5.75;0.85;;;;;;;;;;5079494;28;20029;-60
2021/06/23 10:41:57;;;;;;;0.57;0.57;;;;;;;;;;5077787;28;20055;-59
2021/06/23 10:44:25;;;;;;;1.15;0.73;;;;;;;;;;5079129;28;20111;-59
2021/06/23 10:46:53;;;;;;;1.15;0.75;;;;;;;;;;5078830;28;20029;-59
2021/06/23 10:49:37;;;;;;;4.00;1.02;;;;;;;;;;5077760;28;20055;-59
2021/06/23 10:52:21;;;;;;;1.30;0.73;;;;;;;;;;5078359;28;20105;-59
2021/06/23 10:54:52;;;;;;;1.38;0.80;;;;;;;;;;5078955;28;20037;-60
2021/06/23 10:57:27;;;;;;;2.03;0.90;;;;;;;;;;5078828;28;20103;-59
2021/06/23 11:00:13;;;;;;;1.45;1.27;;;;;;;;;;5078991;28;20024;-59
2021/06/23 11:02:41;;;;;;;0.65;0.65;;;;;;;;;;5066238;28;20036;-59
2021/06/23 11:05:08;;;;;;;3.45;1.00;;;;;;;;;;5077609;28;20462;-59
2021/06/23 11:07:38;;;;;;;0.80;0.80;;;;;;;;;;5078884;28;20029;-59
2021/06/23 11:10:16;;;;;;;1.42;0.90;;;;;;;;;;5078430;28;20457;-59
2021/06/23 11:13:01;;;;;;;1.83;0.88;;;;;;;;;;5077043;28;20410;-59
2021/06/23 11:15:33;;;;;;;1.95;0.90;;;;;;;;;;5078867;28;20075;-59
2021/06/23 11:18:17;;;;;;;0.90;0.68;;;;;;;;;;5078799;28;20039;-59
2021/06/23 11:20:44;;;;;;;2.47;0.70;;;;;;;;;;5077786;28;20401;-59
2021/06/23 11:23:29;;;;;;;0.60;0.60;;;;;;;;;;5079239;28;20077;-59
2021/06/23 11:25:55;;;;;;;0.63;0.63;;;;;;;;;;5078737;28;20033;-59
2021/06/23 11:28:25;;;;;;;1.52;0.80;;;;;;;;;;5076407;28;20355;-59
2021/06/23 11:30:51;;;;;;;1.38;0.80;;;;;;;;;;5074528;28;20016;-59
2021/06/23 11:33:29;;;;;;;0.90;0.90;;;;;;;;;;5074428;28;20033;-59
2021/06/23 11:35:56;;;;;;;0.75;0.70;;;;;;;;;;5074486;28;20466;-59
2021/06/23 11:38:22;;;;;;;0.70;0.70;;;;;;;;;;5075640;28;20024;-59
2021/06/23 11:40:48;;;;;;;0.60;0.60;;;;;;;;;;5074822;28;20028;-59
2021/06/23 11:43:14;;;;;;;1.35;0.93;;;;;;;;;;5075090;28;20480;-59
2021/06/23 11:45:40;;;;;;;0.82;0.82;;;;;;;;;;5073423;28;20475;-59
2021/06/23 11:48:06;;;;;;;0.88;0.88;;;;;;;;;;5075228;28;20025;-59
2021/06/23 11:50:33;;;;;;;0.98;0.90;;;;;;;;;;5072890;28;20058;-59
2021/06/23 11:52:59;;;;;;;1.98;0.82;;;;;;;;;;5075202;28;20097;-59
2021/06/23 11:55:25;;;;;;;1.05;0.95;;;;;;;;;;5074476;28;20087;-59
2021/06/23 11:57:52;;;;;;;1.52;0.90;;;;;;;;;;5064118;28;20038;-59
2021/06/23 12:00:18;;;;;;;9.20;1.45;;;;;;;;;;5063406;28;20036;-59
2021/06/23 12:02:44;;;;;;;1.63;1.10;;;;;;;;;;5064668;28;20020;-59
2021/06/23 12:05:10;;;;;;;1.05;1.00;;;;;;;;;;5065032;28;20570;-59
2021/06/23 12:07:36;;;;;;;1.45;1.10;;;;;;;;;;5074468;28;20492;-59
2021/06/23 12:10:02;;;;;;;1.50;1.15;;;;;;;;;;5074895;28;20414;-59
2021/06/23 12:12:29;;;;;;;2.67;0.98;;;;;;;;;;5074629;28;20028;-59
2021/06/23 12:14:55;;;;;;;0.90;0.88;;;;;;;;;;5074497;28;20436;-59
2021/06/23 12:17:21;;;;;;;2.03;1.08;;;;;;;;;;5074554;28;20028;-59
2021/06/23 12:19:47;;;;;;;0.90;0.90;;;;;;;;;;5074197;28;20474;-59
2021/06/23 12:22:14;;;;;;;2.15;1.15;;;;;;;;;;5074133;28;20074;-59
2021/06/23 12:24:40;;;;;;;1.90;1.40;;;;;;;;;;5074767;28;20024;-59
2021/06/23 12:27:06;;;;;;;1.30;1.00;;;;;;;;;;5074495;28;20028;-59
2021/06/23 12:29:33;;;;;;;3.50;1.10;;;;;;;;;;5074444;28;20402;-59
2021/06/23 12:32:02;;;;;;;1.10;1.00;;;;;;;;;;5073583;28;20024;-59
2021/06/23 12:34:28;;;;;;;1.08;0.90;;;;;;;;;;5073994;28;20065;-59
2021/06/23 12:36:55;;;;;;;1.05;0.98;;;;;;;;;;5074325;28;20029;-59
2021/06/23 12:39:21;;;;;;;0.90;0.90;;;;;;;;;;5072807;28;20459;-59
2021/06/23 12:41:47;;;;;;;8.00;1.20;;;;;;;;;;5072617;28;20451;-59
2021/06/23 12:44:13;;;;;;;1.80;1.13;;;;;;;;;;5073759;28;20020;-59
2021/06/23 12:46:39;;;;;;;1.05;1.00;;;;;;;;;;5074144;28;20485;-59
2021/06/23 12:49:06;;;;;;;4.10;1.73;;;;;;;;;;5073988;28;20016;-59
2021/06/23 12:51:35;;;;;;;1.48;1.08;;;;;;;;;;5073262;28;20454;-59
2021/06/23 12:54:01;;;;;;;0.95;0.88;;;;;;;;;;5073825;28;20024;-59
2021/06/23 12:56:27;;;;;;;1.10;1.02;;;;;;;;;;5074099;28;20039;-59
2021/06/23 12:58:54;;;;;;;1.30;1.20;;;;;;;;;;5073612;28;20028;-59
2021/06/23 13:01:20;;;;;;;1.23;1.13;;;;;;;;;;5072686;28;20031;-59
2021/06/23 13:03:46;;;;;;;2.85;1.10;;;;;;;;;;5073900;28;20028;-60
2021/06/23 13:06:12;;;;;;;1.83;1.25;;;;;;;;;;5072297;28;20431;-59
2021/06/23 13:08:38;;;;;;;1.88;1.15;;;;;;;;;;5073572;28;20355;-59
2021/06/23 13:11:04;;;;;;;1.25;1.10;;;;;;;;;;5072973;28;20021;-59
2021/06/23 13:13:30;;;;;;;0.90;0.90;;;;;;;;;;5073250;28;20394;-59
2021/06/23 13:15:58;;;;;;;5.60;1.02;;;;;;;;;;5072984;28;20024;-59
2021/06/23 13:18:24;;;;;;;3.63;1.20;;;;;;;;;;5073410;28;20028;-59
2021/06/23 13:20:50;;;;;;;1.83;1.20;;;;;;;;;;5072597;28;20033;-59
2021/06/23 13:23:16;;;;;;;2.17;1.75;;;;;;;;;;5073312;28;20462;-59
2021/06/23 13:25:44;;;;;;;3.17;1.55;;;;;;;;;;5073509;28;20048;-59
2021/06/23 13:28:10;;;;;;;1.50;1.30;;;;;;;;;;5073698;28;20021;-59
2021/06/23 13:30:36;;;;;;;1.50;1.40;;;;;;;;;;5071836;28;20091;-59
2021/06/23 13:33:02;;;;;;;3.78;1.40;;;;;;;;;;5073127;28;20462;-60
2021/06/23 13:35:28;;;;;;;1.25;1.20;;;;;;;;;;5073236;28;20062;-59
2021/06/23 13:37:55;;;;;;;1.02;1.02;;;;;;;;;;5073164;28;20025;-59
2021/06/23 13:40:22;;;;;;;2.42;1.40;;;;;;;;;;5072387;28;20025;-59
2021/06/23 13:42:48;;;;;;;2.22;1.30;;;;;;;;;;5073131;28;20027;-59
2021/06/23 13:45:14;;;;;;;2.60;1.20;;;;;;;;;;5073048;28;20417;-59
2021/06/23 13:47:40;;;;;;;22.30;5.03;;;;;;;;;;5071467;28;20108;-59
2021/06/23 13:50:07;;;;;;;2.90;1.42;;;;;;;;;;5072320;28;20028;-59
2021/06/23 13:52:33;;;;;;;5.63;2.70;;;;;;;;;;5072400;28;20444;-59
2021/06/23 13:54:59;;;;;;;1.75;1.40;;;;;;;;;;5072857;28;20036;-59
2021/06/23 13:57:29;;;;;;;3.60;1.48;;;;;;;;;;5073324;28;20020;-59
2021/06/23 13:59:55;;;;;;;1.85;1.50;;;;;;;;;;5072596;28;20103;-59
2021/06/23 14:02:21;;;;;;;3.33;1.55;;;;;;;;;;5072185;28;20104;-59
2021/06/23 14:04:47;;;;;;;1.40;1.30;;;;;;;;;;5072813;28;20029;-59
2021/06/23 14:07:13;;;;;;;1.50;1.25;;;;;;;;;;5072601;28;20024;-59
2021/06/23 14:09:40;;;;;;;60.28;3.45;;;;;;;;;;5067015;28;20025;-59
2021/06/23 14:12:06;;;;;;;2.97;1.48;;;;;;;;;;5060600;28;20024;-59
2021/06/23 14:14:32;;;;;;;3.83;1.50;;;;;;;;;;5052477;28;20158;-59
2021/06/23 14:16:58;;;;;;;2.97;1.50;;;;;;;;;;5052707;28;20512;-59
2021/06/23 14:19:24;;;;;;;2.42;1.20;;;;;;;;;;5052510;28;20407;-59
2021/06/23 14:21:52;;;;;;;1.35;1.25;;;;;;;;;;5051442;28;20032;-59
2021/06/23 14:24:18;;;;;;;3.15;1.17;;;;;;;;;;5052720;28;20052;-59
2021/06/23 14:26:44;;;;;;;17.35;1.73;;;;;;;;;;5051112;28;20494;-59
2021/06/23 14:29:10;;;;;;;1.60;1.38;;;;;;;;;;5052372;28;20037;-59
2021/06/23 14:31:36;;;;;;;4.13;1.63;;;;;;;;;;5051642;28;20444;-59
2021/06/23 14:34:02;;;;;;;1.52;1.40;;;;;;;;;;5063784;28;20462;-59
2021/06/23 14:36:28;;;;;;;3.60;1.42;;;;;;;;;;5070246;28;20040;-63
2021/06/23 14:38:54;;;;;;;6.10;2.42;;;;;;;;;;5070828;28;20036;-59
2021/06/23 14:41:21;;;;;;;2.50;1.60;;;;;;;;;;5069540;28;20036;-60
2021/06/23 14:43:47;;;;;;;2.25;1.52;;;;;;;;;;5059843;28;20043;-59
2021/06/23 14:46:13;;;;;;;6.22;1.52;;;;;;;;;;5050625;28;20098;-59
2021/06/23 14:48:39;;;;;;;29.15;2.65;;;;;;;;;;5050699;28;20028;-59
2021/06/23 14:51:05;;;;;;;32.17;2.40;;;;;;;;;;5049611;28;20029;-61
2021/06/23 14:53:31;;;;;;;6.55;1.20;;;;;;;;;;5050461;28;20451;-47
2021/06/23 14:55:57;;;;;;;3.10;1.45;;;;;;;;;;5050748;28;20044;-48
2021/06/23 14:58:23;;;;;;;6.78;1.45;;;;;;;;;;5052327;28;20021;-47
2021/06/23 15:00:49;;;;;;;3.38;1.63;;;;;;;;;;5065188;28;20081;-48
2021/06/23 15:03:15;;;;;;;1.75;1.60;;;;;;;;;;5072613;28;20104;-48